createdAt,value
2017-06-04T00:00:29.186Z,99.99
2017-06-04T00:01:29.762Z,99.99
2017-06-04T00:02:30.343Z,99.99
2017-06-04T00:03:30.922Z,99.99
2017-06-04T00:04:31.500Z,99.99
2017-06-04T00:05:32.078Z,99.99
2017-06-04T00:06:32.656Z,99.99
2017-06-04T00:07:33.238Z,99.99
2017-06-04T00:08:33.818Z,99.99
2017-06-04T00:09:34.398Z,99.99
2017-06-04T00:10:34.977Z,99.99
2017-06-04T00:11:35.556Z,99.99
2017-06-04T00:12:36.133Z,99.99
2017-06-04T00:13:36.713Z,99.99
2017-06-04T00:14:37.293Z,99.99
2017-06-04T00:15:37.887Z,99.99
2017-06-04T00:16:38.466Z,99.99
2017-06-04T00:17:39.049Z,99.99
2017-06-04T00:18:39.624Z,99.99
2017-06-04T00:19:40.204Z,99.99
2017-06-04T00:20:40.782Z,99.99
2017-06-04T00:21:41.374Z,99.99
2017-06-04T00:22:41.953Z,99.99
2017-06-04T00:23:42.531Z,99.99
2017-06-04T00:24:43.108Z,99.99
2017-06-04T00:25:43.687Z,99.99
2017-06-04T00:26:44.264Z,99.99
2017-06-04T00:27:44.841Z,99.99
2017-06-04T00:28:45.421Z,99.99
2017-06-04T00:29:46.002Z,99.99
2017-06-04T00:30:46.580Z,99.99
2017-06-04T00:31:47.160Z,99.99
2017-06-04T00:32:47.738Z,99.99
2017-06-04T00:33:48.317Z,99.99
2017-06-04T00:34:48.897Z,99.99
2017-06-04T00:35:49.489Z,99.99
2017-06-04T00:36:50.067Z,99.99
2017-06-04T00:37:50.645Z,99.99
2017-06-04T00:38:51.224Z,99.99
2017-06-04T00:39:51.804Z,99.99
2017-06-04T00:40:52.382Z,99.99
2017-06-04T00:41:52.963Z,99.99
2017-06-04T00:42:53.541Z,99.99
2017-06-04T00:43:54.118Z,99.99
2017-06-04T00:44:54.695Z,99.99
2017-06-04T00:45:55.274Z,99.99
2017-06-04T00:46:55.853Z,99.99
2017-06-04T00:47:56.433Z,99.99
2017-06-04T00:48:57.013Z,99.99
2017-06-04T00:49:57.591Z,99.99
2017-06-04T00:50:58.170Z,99.99
2017-06-04T00:51:58.747Z,99.99
2017-06-04T00:52:59.328Z,99.99
2017-06-04T00:53:59.902Z,99.99
2017-06-04T00:55:00.483Z,99.99
2017-06-04T00:56:01.063Z,99.99
2017-06-04T00:57:01.656Z,99.99
2017-06-04T00:58:02.236Z,99.99
2017-06-04T00:59:02.817Z,99.99
2017-06-04T01:00:03.394Z,99.99
2017-06-04T01:01:03.973Z,99.99
2017-06-04T01:02:04.551Z,99.99
2017-06-04T01:03:05.130Z,99.99
2017-06-04T01:04:05.709Z,99.99
2017-06-04T01:05:06.288Z,99.99
2017-06-04T01:06:06.867Z,99.99
2017-06-04T01:07:07.446Z,99.99
2017-06-04T01:08:08.024Z,99.99
2017-06-04T01:09:08.601Z,99.99
2017-06-04T01:10:09.179Z,99.99
2017-06-04T01:11:09.760Z,99.99
2017-06-04T01:12:10.339Z,99.99
2017-06-04T01:13:10.920Z,99.99
2017-06-04T01:14:11.501Z,99.99
2017-06-04T01:15:12.077Z,99.99
2017-06-04T01:16:12.669Z,99.99
2017-06-04T01:17:13.247Z,99.99
2017-06-04T01:18:13.826Z,99.99
2017-06-04T01:19:14.404Z,99.99
2017-06-04T01:20:14.981Z,99.99
2017-06-04T01:21:15.574Z,99.99
2017-06-04T01:22:16.152Z,99.99
2017-06-04T01:23:16.730Z,99.99
2017-06-04T01:24:17.329Z,99.99
2017-06-04T01:25:17.898Z,99.99
2017-06-04T01:26:18.475Z,99.99
2017-06-04T01:27:19.055Z,99.99
2017-06-04T01:28:19.648Z,99.99
2017-06-04T01:29:20.227Z,99.99
2017-06-04T01:30:20.807Z,99.99
2017-06-04T01:31:21.384Z,99.99
2017-06-04T01:32:21.964Z,99.99
2017-06-04T01:33:22.541Z,99.99
2017-06-04T01:34:23.118Z,99.99
2017-06-04T01:35:23.697Z,99.99
2017-06-04T01:36:24.277Z,99.99
2017-06-04T01:37:24.857Z,99.99
2017-06-04T01:38:25.434Z,99.99
2017-06-04T01:39:26.013Z,99.99
2017-06-04T01:40:26.590Z,99.99
2017-06-04T01:41:27.183Z,99.99
2017-06-04T01:42:27.762Z,99.99
2017-06-04T01:43:28.339Z,99.99
2017-06-04T01:44:28.917Z,99.99
2017-06-04T01:45:29.495Z,99.99
2017-06-04T01:46:30.073Z,99.99
2017-06-04T01:47:30.652Z,99.99
2017-06-04T01:48:31.230Z,99.99
2017-06-04T01:49:31.811Z,99.99
2017-06-04T01:50:32.389Z,99.99
2017-06-04T01:51:32.967Z,99.99
2017-06-04T01:52:33.567Z,99.99
2017-06-04T01:53:34.123Z,99.99
2017-06-04T01:54:34.701Z,99.99
2017-06-04T01:55:35.281Z,99.99
2017-06-04T01:56:35.861Z,99.99
2017-06-04T01:57:36.438Z,99.99
2017-06-04T01:58:37.015Z,99.99
2017-06-04T01:59:37.593Z,99.99
2017-06-04T02:00:38.171Z,99.99
2017-06-04T02:01:38.752Z,99.99
2017-06-04T02:02:39.328Z,99.99
2017-06-04T02:03:39.909Z,99.99
2017-06-04T02:04:40.486Z,99.99
2017-06-04T02:05:41.065Z,99.99
2017-06-04T02:06:41.641Z,99.99
2017-06-04T02:07:42.219Z,99.99
2017-06-04T02:08:42.797Z,99.99
2017-06-04T02:09:43.377Z,99.99
2017-06-04T02:10:43.969Z,99.99
2017-06-04T02:11:44.550Z,99.99
2017-06-04T02:12:45.128Z,99.99
2017-06-04T02:13:45.706Z,99.99
2017-06-04T02:14:46.285Z,99.99
2017-06-04T02:15:46.861Z,99.99
2017-06-04T02:16:47.470Z,99.99
2017-06-04T02:17:48.023Z,99.99
2017-06-04T02:18:48.602Z,99.99
2017-06-04T02:19:49.174Z,99.99
2017-06-04T02:20:49.754Z,99.99
2017-06-04T02:21:50.330Z,99.99
2017-06-04T02:22:50.907Z,99.99
2017-06-04T02:23:51.484Z,99.99
2017-06-04T02:24:52.062Z,99.99
2017-06-04T02:25:52.640Z,99.99
2017-06-04T02:26:53.218Z,99.99
2017-06-04T02:27:53.799Z,99.99
2017-06-04T02:28:54.375Z,99.99
2017-06-04T02:29:54.952Z,99.99
2017-06-04T02:30:55.530Z,99.99
2017-06-04T02:31:56.107Z,99.99
2017-06-04T02:32:56.685Z,99.99
2017-06-04T02:33:57.262Z,99.99
2017-06-04T02:34:57.840Z,99.99
2017-06-04T02:35:58.432Z,99.99
2017-06-04T02:36:59.014Z,99.99
2017-06-04T02:37:59.591Z,99.99
2017-06-04T02:39:00.168Z,99.99
2017-06-04T02:40:00.747Z,99.99
2017-06-04T02:41:01.326Z,99.99
2017-06-04T02:42:01.901Z,99.99
2017-06-04T02:43:02.479Z,99.99
2017-06-04T02:44:03.056Z,99.99
2017-06-04T02:45:03.636Z,99.99
2017-06-04T02:46:04.213Z,99.99
2017-06-04T02:47:04.793Z,99.99
2017-06-04T02:48:05.371Z,99.99
2017-06-04T02:49:05.949Z,99.99
2017-06-04T02:50:06.528Z,99.99
2017-06-04T02:51:07.107Z,99.99
2017-06-04T02:52:07.686Z,99.99
2017-06-04T02:53:08.265Z,99.99
2017-06-04T02:54:08.843Z,99.99
2017-06-04T02:55:09.419Z,99.99
2017-06-04T02:56:09.997Z,99.99
2017-06-04T02:57:10.574Z,99.99
2017-06-04T02:58:11.153Z,99.99
2017-06-04T02:59:11.732Z,99.99
2017-06-04T03:00:12.310Z,99.99
2017-06-04T03:01:12.889Z,99.99
2017-06-04T03:02:13.468Z,99.99
2017-06-04T03:03:14.046Z,99.99
2017-06-04T03:04:14.623Z,99.99
2017-06-04T03:05:15.201Z,99.99
2017-06-04T03:06:15.781Z,99.99
2017-06-04T03:07:16.358Z,99.99
2017-06-04T03:08:16.939Z,99.99
2017-06-04T03:09:17.531Z,99.99
2017-06-04T03:10:18.108Z,99.99
2017-06-04T03:11:18.686Z,99.99
2017-06-04T03:12:19.264Z,99.99
2017-06-04T03:13:19.841Z,99.99
2017-06-04T03:14:20.419Z,99.99
2017-06-04T03:15:20.997Z,99.99
2017-06-04T03:16:21.578Z,99.99
2017-06-04T03:17:22.156Z,99.99
2017-06-04T03:18:22.736Z,99.99
2017-06-04T03:19:23.315Z,99.99
2017-06-04T03:20:23.891Z,99.99
2017-06-04T03:21:24.469Z,99.99
2017-06-04T03:22:25.049Z,99.99
2017-06-04T03:23:25.639Z,99.99
2017-06-04T03:24:26.232Z,99.99
2017-06-04T03:25:26.810Z,99.99
2017-06-04T03:26:27.387Z,99.99
2017-06-04T03:27:27.963Z,99.99
2017-06-04T03:28:28.542Z,99.99
2017-06-04T03:29:29.118Z,99.99
2017-06-04T03:30:29.697Z,99.99
2017-06-04T03:31:30.278Z,99.99
2017-06-04T03:32:30.855Z,99.99
2017-06-04T03:33:31.435Z,99.99
2017-06-04T03:34:32.012Z,99.99
2017-06-04T03:35:32.591Z,99.99
2017-06-04T03:36:33.170Z,99.99
2017-06-04T03:37:33.750Z,99.99
2017-06-04T03:38:34.331Z,99.99
2017-06-04T03:39:34.924Z,99.99
2017-06-04T03:40:35.504Z,99.99
2017-06-04T03:41:36.103Z,99.99
2017-06-04T03:42:36.678Z,99.99
2017-06-04T03:43:37.257Z,99.99
2017-06-04T03:44:37.835Z,99.99
2017-06-04T03:45:38.427Z,99.99
2017-06-04T03:46:39.006Z,99.99
2017-06-04T03:47:39.583Z,99.99
2017-06-04T03:48:40.163Z,99.99
2017-06-04T03:49:40.745Z,99.99
2017-06-04T03:50:41.325Z,99.99
2017-06-04T03:51:41.917Z,99.99
2017-06-04T03:52:42.496Z,99.99
2017-06-04T03:53:43.076Z,99.99
2017-06-04T03:54:43.656Z,99.99
2017-06-04T03:55:44.235Z,99.99
2017-06-04T03:56:44.817Z,99.99
2017-06-04T03:57:45.395Z,99.99
2017-06-04T03:58:45.974Z,99.99
2017-06-04T03:59:46.553Z,99.99
2017-06-04T04:00:47.133Z,99.99
2017-06-04T04:01:47.712Z,99.99
2017-06-04T04:02:48.292Z,99.99
2017-06-04T04:03:48.872Z,99.99
2017-06-04T04:04:49.450Z,99.99
2017-06-04T04:05:50.029Z,99.99
2017-06-04T04:06:50.607Z,99.99
2017-06-04T04:07:51.201Z,99.99
2017-06-04T04:08:51.779Z,99.99
2017-06-04T04:09:52.360Z,99.99
2017-06-04T04:10:52.940Z,99.99
2017-06-04T04:11:53.520Z,99.99
2017-06-04T04:12:54.096Z,99.99
2017-06-04T04:13:54.682Z,99.99
2017-06-04T04:14:55.257Z,99.99
2017-06-04T04:15:55.835Z,99.99
2017-06-04T04:16:56.416Z,99.99
2017-06-04T04:17:56.994Z,99.99
2017-06-04T04:18:57.572Z,99.99
2017-06-04T04:19:58.152Z,99.99
2017-06-04T04:20:58.744Z,99.99
2017-06-04T04:21:59.323Z,99.99
2017-06-04T04:22:59.905Z,99.99
2017-06-04T04:24:00.483Z,99.99
2017-06-04T04:25:01.061Z,99.99
2017-06-04T04:26:01.641Z,99.99
2017-06-04T04:27:02.220Z,99.99
2017-06-04T04:28:02.801Z,99.99
2017-06-04T04:29:03.380Z,99.99
2017-06-04T04:30:03.961Z,99.99
2017-06-04T04:31:04.540Z,99.99
2017-06-04T04:32:05.133Z,99.99
2017-06-04T04:33:05.713Z,99.99
2017-06-04T04:34:06.291Z,99.99
2017-06-04T04:35:06.872Z,99.99
2017-06-04T04:36:07.454Z,99.99
2017-06-04T04:37:08.048Z,99.99
2017-06-04T04:38:08.627Z,99.99
2017-06-04T04:39:09.207Z,99.99
2017-06-04T04:40:09.789Z,99.99
2017-06-04T04:41:10.371Z,99.99
2017-06-04T04:42:10.964Z,99.99
2017-06-04T04:43:11.545Z,99.99
2017-06-04T04:44:12.139Z,99.99
2017-06-04T04:45:12.735Z,99.99
2017-06-04T04:46:13.316Z,99.99
2017-06-04T04:47:13.894Z,99.99
2017-06-04T04:48:14.473Z,99.99
2017-06-04T04:49:15.053Z,99.99
2017-06-04T04:50:15.635Z,99.99
2017-06-04T04:51:16.215Z,99.99
2017-06-04T04:52:16.795Z,99.99
2017-06-04T04:53:17.376Z,99.99
2017-06-04T04:54:17.957Z,99.99
2017-06-04T04:55:18.539Z,99.99
2017-06-04T04:56:19.118Z,99.99
2017-06-04T04:57:19.713Z,99.99
2017-06-04T04:58:20.293Z,99.99
2017-06-04T04:59:20.875Z,99.99
2017-06-04T05:00:21.455Z,99.99
2017-06-04T05:01:22.038Z,99.99
2017-06-04T05:02:22.618Z,99.99
2017-06-04T05:03:23.197Z,99.99
2017-06-04T05:04:23.779Z,99.99
2017-06-04T05:05:24.359Z,99.99
2017-06-04T05:06:24.939Z,99.99
2017-06-04T05:07:25.522Z,99.99
2017-06-04T05:08:26.102Z,99.99
2017-06-04T05:09:26.682Z,99.99
2017-06-04T05:10:27.262Z,99.99
2017-06-04T05:11:27.857Z,99.99
2017-06-04T05:12:28.437Z,99.99
2017-06-04T05:13:29.021Z,99.99
2017-06-04T05:14:29.602Z,99.99
2017-06-04T05:15:30.182Z,99.99
2017-06-04T05:16:30.765Z,99.99
2017-06-04T05:17:31.346Z,99.99
2017-06-04T05:18:31.926Z,99.99
2017-06-04T05:19:32.508Z,99.99
2017-06-04T05:20:33.089Z,99.99
2017-06-04T05:21:33.671Z,99.99
2017-06-04T05:22:34.253Z,99.99
2017-06-04T05:23:34.847Z,99.99
2017-06-04T05:24:35.430Z,99.99
2017-06-04T05:25:36.011Z,99.99
2017-06-04T05:26:36.593Z,99.99
2017-06-04T05:27:37.173Z,99.99
2017-06-04T05:28:37.757Z,99.99
2017-06-04T05:29:38.336Z,99.99
2017-06-04T05:30:38.918Z,99.99
2017-06-04T05:31:39.500Z,99.99
2017-06-04T05:32:40.082Z,99.99
2017-06-04T05:33:40.661Z,99.99
2017-06-04T05:34:41.242Z,99.99
2017-06-04T05:35:41.824Z,99.99
2017-06-04T05:36:42.406Z,99.99
2017-06-04T05:37:42.986Z,99.99
2017-06-04T05:38:43.569Z,99.99
2017-06-04T05:39:44.152Z,99.99
2017-06-04T05:40:44.731Z,99.99
2017-06-04T05:41:45.312Z,99.99
2017-06-04T05:42:45.895Z,99.99
2017-06-04T05:43:46.476Z,99.99
2017-06-04T05:44:47.055Z,99.99
2017-06-04T05:45:47.637Z,99.99
2017-06-04T05:46:48.218Z,99.99
2017-06-04T05:47:48.801Z,99.99
2017-06-04T05:48:49.395Z,99.99
2017-06-04T05:49:49.976Z,99.99
2017-06-04T05:50:50.558Z,99.99
2017-06-04T05:51:51.141Z,99.99
2017-06-04T05:52:51.725Z,99.99
2017-06-04T05:53:52.302Z,99.99
2017-06-04T05:54:52.886Z,99.99
2017-06-04T05:55:53.466Z,99.99
2017-06-04T05:56:54.046Z,99.99
2017-06-04T05:57:54.629Z,99.99
2017-06-04T05:58:55.210Z,99.99
2017-06-04T05:59:55.793Z,99.99
2017-06-04T06:00:56.372Z,99.99
2017-06-04T06:01:56.953Z,99.99
2017-06-04T06:02:57.535Z,99.99
2017-06-04T06:03:58.115Z,99.99
2017-06-04T06:04:58.695Z,99.99
2017-06-04T06:05:59.277Z,99.99
2017-06-04T06:06:59.859Z,99.99
2017-06-04T06:08:00.441Z,99.99
2017-06-04T06:09:01.025Z,99.99
2017-06-04T06:10:01.605Z,99.99
2017-06-04T06:11:02.185Z,99.99
2017-06-04T06:12:02.766Z,99.99
2017-06-04T06:13:03.349Z,99.99
2017-06-04T06:14:03.934Z,99.99
2017-06-04T06:15:04.510Z,99.99
2017-06-04T06:16:05.092Z,99.99
2017-06-04T06:17:05.674Z,99.99
2017-06-04T06:18:06.256Z,99.99
2017-06-04T06:19:06.839Z,99.99
2017-06-04T06:20:07.420Z,99.99
2017-06-04T06:21:08.001Z,99.99
2017-06-04T06:22:08.583Z,99.99
2017-06-04T06:23:09.166Z,99.99
2017-06-04T06:24:09.750Z,99.99
2017-06-04T06:25:10.327Z,99.99
2017-06-04T06:26:10.910Z,99.99
2017-06-04T06:27:11.491Z,99.99
2017-06-04T06:28:12.073Z,99.99
2017-06-04T06:29:12.652Z,99.99
2017-06-04T06:30:13.234Z,99.99
2017-06-04T06:31:13.816Z,99.99
2017-06-04T06:32:14.396Z,99.99
2017-06-04T06:33:14.978Z,99.99
2017-06-04T06:34:15.572Z,99.99
2017-06-04T06:35:16.155Z,99.99
2017-06-04T06:36:16.734Z,99.99
2017-06-04T06:37:17.314Z,99.99
2017-06-04T06:38:17.895Z,99.99
2017-06-04T06:39:18.476Z,99.99
2017-06-04T06:40:19.059Z,99.99
2017-06-04T06:41:19.640Z,99.99
2017-06-04T06:42:20.223Z,99.99
2017-06-04T06:43:20.805Z,99.99
2017-06-04T06:44:21.386Z,99.99
2017-06-04T06:45:21.967Z,99.99
2017-06-04T06:46:22.549Z,99.96
2017-06-04T06:47:23.129Z,99.99
2017-06-04T06:48:23.711Z,99.99
2017-06-04T06:49:24.294Z,99.99
2017-06-04T06:50:24.876Z,99.99
2017-06-04T06:51:25.458Z,99.99
2017-06-04T06:52:26.041Z,98.96
2017-06-04T06:53:26.620Z,99.63
2017-06-04T06:54:27.202Z,99.24
2017-06-04T06:55:27.785Z,98.57
2017-06-04T06:56:28.366Z,99.34
2017-06-04T06:57:28.949Z,97.04
2017-06-04T06:58:29.533Z,96.94
2017-06-04T06:59:30.113Z,98.47
2017-06-04T07:00:30.695Z,98.10
2017-06-04T07:01:31.278Z,98.38
2017-06-04T07:02:31.859Z,99.24
2017-06-04T07:03:32.442Z,95.31
2017-06-04T07:04:33.024Z,96.27
2017-06-04T07:05:33.604Z,98.86
2017-06-04T07:06:34.190Z,97.47
2017-06-04T07:07:34.769Z,94.50
2017-06-04T07:08:35.352Z,93.78
2017-06-04T07:09:35.942Z,95.46
2017-06-04T07:10:36.524Z,94.64
2017-06-04T07:11:37.106Z,95.31
2017-06-04T07:12:37.689Z,94.69
2017-06-04T07:13:38.271Z,94.07
2017-06-04T07:14:38.867Z,92.54
2017-06-04T07:15:39.448Z,94.12
2017-06-04T07:16:40.031Z,92.30
2017-06-04T07:17:40.610Z,92.58
2017-06-04T07:18:41.191Z,93.44
2017-06-04T07:19:41.773Z,93.44
2017-06-04T07:20:42.356Z,91.09
2017-06-04T07:21:42.939Z,91.00
2017-06-04T07:22:43.521Z,90.00
2017-06-04T07:23:44.102Z,91.24
2017-06-04T07:24:44.686Z,91.28
2017-06-04T07:25:45.283Z,92.91
2017-06-04T07:26:45.866Z,93.01
2017-06-04T07:27:46.446Z,93.88
2017-06-04T07:28:47.029Z,93.40
2017-06-04T07:29:47.625Z,92.24
2017-06-04T07:30:48.206Z,93.35
2017-06-04T07:31:48.788Z,90.52
2017-06-04T07:32:49.383Z,90.14
2017-06-04T07:33:49.967Z,91.00
2017-06-04T07:34:50.549Z,93.06
2017-06-04T07:35:51.131Z,90.61
2017-06-04T07:36:51.712Z,87.93
2017-06-04T07:37:52.309Z,89.37
2017-06-04T07:38:52.890Z,89.75
2017-06-04T07:39:53.475Z,91.00
2017-06-04T07:40:54.056Z,92.44
2017-06-04T07:41:54.638Z,89.56
2017-06-04T07:42:55.222Z,89.94
2017-06-04T07:43:55.802Z,90.52
2017-06-04T07:44:56.401Z,86.21
2017-06-04T07:45:56.995Z,88.02
2017-06-04T07:46:57.576Z,89.94
2017-06-04T07:47:58.156Z,86.68
2017-06-04T07:48:58.738Z,87.40
2017-06-04T07:49:59.322Z,87.59
2017-06-04T07:50:59.903Z,87.21
2017-06-04T07:52:00.485Z,87.40
2017-06-04T07:53:01.069Z,88.26
2017-06-04T07:54:01.651Z,87.11
2017-06-04T07:55:02.234Z,88.26
2017-06-04T07:56:02.820Z,87.30
2017-06-04T07:57:03.399Z,86.00
2017-06-04T07:58:03.981Z,86.96
2017-06-04T07:59:04.565Z,85.24
2017-06-04T08:00:05.147Z,83.89
2017-06-04T08:01:05.730Z,84.66
2017-06-04T08:02:06.312Z,84.37
2017-06-04T08:03:06.894Z,84.71
2017-06-04T08:04:07.492Z,85.77
2017-06-04T08:05:08.075Z,86.29
2017-06-04T08:06:08.656Z,83.37
2017-06-04T08:07:09.240Z,83.08
2017-06-04T08:08:09.824Z,84.23
2017-06-04T08:09:10.404Z,84.18
2017-06-04T08:10:10.988Z,82.93
2017-06-04T08:11:11.584Z,82.54
2017-06-04T08:12:12.169Z,82.93
2017-06-04T08:13:12.749Z,81.74
2017-06-04T08:14:13.330Z,82.89
2017-06-04T08:15:13.911Z,83.08
2017-06-04T08:16:14.494Z,81.64
2017-06-04T08:17:15.079Z,80.97
2017-06-04T08:18:15.662Z,76.94
2017-06-04T08:19:16.244Z,75.79
2017-06-04T08:20:16.828Z,77.17
2017-06-04T08:21:17.409Z,78.13
2017-06-04T08:22:17.994Z,78.94
2017-06-04T08:23:18.574Z,78.23
2017-06-04T08:24:19.158Z,77.84
2017-06-04T08:25:19.739Z,78.32
2017-06-04T08:26:20.340Z,78.45
2017-06-04T08:27:20.923Z,75.82
2017-06-04T08:28:21.506Z,77.01
2017-06-04T08:29:22.088Z,76.73
2017-06-04T08:30:22.670Z,77.59
2017-06-04T08:31:23.255Z,77.06
2017-06-04T08:32:23.852Z,74.94
2017-06-04T08:33:24.435Z,74.81
2017-06-04T08:34:25.021Z,76.15
2017-06-04T08:35:25.600Z,75.67
2017-06-04T08:36:26.185Z,75.10
2017-06-04T08:37:26.767Z,75.63
2017-06-04T08:38:27.349Z,77.01
2017-06-04T08:39:27.934Z,77.40
2017-06-04T08:40:28.516Z,76.21
2017-06-04T08:41:29.098Z,76.02
2017-06-04T08:42:29.684Z,74.68
2017-06-04T08:43:30.265Z,75.57
2017-06-04T08:44:30.847Z,74.29
2017-06-04T08:45:31.432Z,75.15
2017-06-04T08:46:32.015Z,74.52
2017-06-04T08:47:32.599Z,74.04
2017-06-04T08:48:33.184Z,74.46
2017-06-04T08:49:33.768Z,73.08
2017-06-04T08:50:34.350Z,74.75
2017-06-04T08:51:34.948Z,74.81
2017-06-04T08:52:35.530Z,74.69
2017-06-04T08:53:36.115Z,72.00
2017-06-04T08:54:36.702Z,70.23
2017-06-04T08:55:37.282Z,70.43
2017-06-04T08:56:37.866Z,71.19
2017-06-04T08:57:38.466Z,71.04
2017-06-04T08:58:39.048Z,71.42
2017-06-04T08:59:39.632Z,72.67
2017-06-04T09:00:40.215Z,74.27
2017-06-04T09:01:40.800Z,72.83
2017-06-04T09:02:41.381Z,73.79
2017-06-04T09:03:41.966Z,72.83
2017-06-04T09:04:42.551Z,71.61
2017-06-04T09:05:43.135Z,70.37
2017-06-04T09:06:43.720Z,71.08
2017-06-04T09:07:44.307Z,69.50
2017-06-04T09:08:44.889Z,69.50
2017-06-04T09:09:45.473Z,69.31
2017-06-04T09:10:46.059Z,68.35
2017-06-04T09:11:46.641Z,68.70
2017-06-04T09:12:47.224Z,70.17
2017-06-04T09:13:47.808Z,68.31
2017-06-04T09:14:48.404Z,69.79
2017-06-04T09:15:48.985Z,68.41
2017-06-04T09:16:49.569Z,68.37
2017-06-04T09:17:50.154Z,68.60
2017-06-04T09:18:50.738Z,67.93
2017-06-04T09:19:51.321Z,68.12
2017-06-04T09:20:51.905Z,68.06
2017-06-04T09:21:52.490Z,67.77
2017-06-04T09:22:53.074Z,68.67
2017-06-04T09:23:53.659Z,67.03
2017-06-04T09:24:54.244Z,66.27
2017-06-04T09:25:54.829Z,66.33
2017-06-04T09:26:55.411Z,67.96
2017-06-04T09:27:55.993Z,67.64
2017-06-04T09:28:56.580Z,69.56
2017-06-04T09:29:57.161Z,68.70
2017-06-04T09:30:57.744Z,69.18
2017-06-04T09:31:58.330Z,69.56
2017-06-04T09:32:58.913Z,67.93
2017-06-04T09:33:59.497Z,66.00
2017-06-04T09:35:00.082Z,65.91
2017-06-04T09:36:00.681Z,65.72
2017-06-04T09:37:01.264Z,66.81
2017-06-04T09:38:01.849Z,67.32
2017-06-04T09:39:02.436Z,65.20
2017-06-04T09:40:03.018Z,65.84
2017-06-04T09:41:03.604Z,66.65
2017-06-04T09:42:04.190Z,66.78
2017-06-04T09:43:04.774Z,65.53
2017-06-04T09:44:05.359Z,64.95
2017-06-04T09:45:05.949Z,64.37
2017-06-04T09:46:06.528Z,64.15
2017-06-04T09:47:07.116Z,64.53
2017-06-04T09:48:07.698Z,64.73
2017-06-04T09:49:08.283Z,62.19
2017-06-04T09:50:08.867Z,61.04
2017-06-04T09:51:09.453Z,61.36
2017-06-04T09:52:10.035Z,62.26
2017-06-04T09:53:10.621Z,61.36
2017-06-04T09:54:11.207Z,63.70
2017-06-04T09:55:11.795Z,62.83
2017-06-04T09:56:12.375Z,62.23
2017-06-04T09:57:12.972Z,60.27
2017-06-04T09:58:13.563Z,61.07
2017-06-04T09:59:14.140Z,59.89
2017-06-04T10:00:14.739Z,59.12
2017-06-04T10:01:15.324Z,59.53
2017-06-04T10:02:15.910Z,59.85
2017-06-04T10:03:16.494Z,58.89
2017-06-04T10:04:17.078Z,59.72
2017-06-04T10:05:17.665Z,59.34
2017-06-04T10:06:18.249Z,58.15
2017-06-04T10:07:18.833Z,59.22
2017-06-04T10:08:19.419Z,59.47
2017-06-04T10:09:20.003Z,59.08
2017-06-04T10:10:20.586Z,58.02
2017-06-04T10:11:21.173Z,58.92
2017-06-04T10:12:21.757Z,58.63
2017-06-04T10:13:22.343Z,59.08
2017-06-04T10:14:22.928Z,59.17
2017-06-04T10:15:23.512Z,58.89
2017-06-04T10:16:24.111Z,56.29
2017-06-04T10:17:24.697Z,56.90
2017-06-04T10:18:25.296Z,56.90
2017-06-04T10:19:25.882Z,54.56
2017-06-04T10:20:26.467Z,54.63
2017-06-04T10:21:27.067Z,55.13
2017-06-04T10:22:27.653Z,53.98
2017-06-04T10:23:28.238Z,54.65
2017-06-04T10:24:28.822Z,54.87
2017-06-04T10:25:29.406Z,53.31
2017-06-04T10:26:29.991Z,53.40
2017-06-04T10:27:30.575Z,53.81
2017-06-04T10:28:31.159Z,54.10
2017-06-04T10:29:31.745Z,53.05
2017-06-04T10:30:32.329Z,53.72
2017-06-04T10:31:32.913Z,54.87
2017-06-04T10:32:33.500Z,54.58
2017-06-04T10:33:34.084Z,53.94
2017-06-04T10:34:34.684Z,54.74
2017-06-04T10:35:35.269Z,54.74
2017-06-04T10:36:35.854Z,53.48
2017-06-04T10:37:36.453Z,52.52
2017-06-04T10:38:37.038Z,52.97
2017-06-04T10:39:37.637Z,54.54
2017-06-04T10:40:38.226Z,54.54
2017-06-04T10:41:38.808Z,53.96
2017-06-04T10:42:39.390Z,52.66
2017-06-04T10:43:39.975Z,54.00
2017-06-04T10:44:40.563Z,54.61
2017-06-04T10:45:41.146Z,53.58
2017-06-04T10:46:41.732Z,53.80
2017-06-04T10:47:42.318Z,50.30
2017-06-04T10:48:42.919Z,50.90
2017-06-04T10:49:43.504Z,53.61
2017-06-04T10:50:44.089Z,53.25
2017-06-04T10:51:44.674Z,54.18
2017-06-04T10:52:45.257Z,55.31
2017-06-04T10:53:45.841Z,54.93
2017-06-04T10:54:46.430Z,54.38
2017-06-04T10:55:47.028Z,55.34
2017-06-04T10:56:47.613Z,52.91
2017-06-04T10:57:48.198Z,53.67
2017-06-04T10:58:48.785Z,52.91
2017-06-04T10:59:49.372Z,53.03
2017-06-04T11:00:49.957Z,53.00
2017-06-04T11:01:50.555Z,52.81
2017-06-04T11:02:51.142Z,52.33
2017-06-04T11:03:51.759Z,52.45
2017-06-04T11:04:52.326Z,51.94
2017-06-04T11:05:52.913Z,53.48
2017-06-04T11:06:53.499Z,52.52
2017-06-04T11:07:54.083Z,52.11
2017-06-04T11:08:54.669Z,52.49
2017-06-04T11:09:55.256Z,53.07
2017-06-04T11:10:55.846Z,54.44
2017-06-04T11:11:56.424Z,53.96
2017-06-04T11:12:57.010Z,53.70
2017-06-04T11:13:57.595Z,54.09
2017-06-04T11:14:58.180Z,53.80
2017-06-04T11:15:58.768Z,53.89
2017-06-04T11:16:59.353Z,52.73
2017-06-04T11:17:59.938Z,52.06
2017-06-04T11:19:00.526Z,52.81
2017-06-04T11:20:01.112Z,52.04
2017-06-04T11:21:01.712Z,54.09
2017-06-04T11:22:02.296Z,54.57
2017-06-04T11:23:02.881Z,53.73
2017-06-04T11:24:03.465Z,54.11
2017-06-04T11:25:04.050Z,54.09
2017-06-04T11:26:04.636Z,53.51
2017-06-04T11:27:05.225Z,54.18
2017-06-04T11:28:05.806Z,54.25
2017-06-04T11:29:06.391Z,53.87
2017-06-04T11:30:06.975Z,54.22
2017-06-04T11:31:07.558Z,54.64
2017-06-04T11:32:08.144Z,54.80
2017-06-04T11:33:08.728Z,56.82
2017-06-04T11:34:09.326Z,56.63
2017-06-04T11:35:09.910Z,58.24
2017-06-04T11:36:10.495Z,59.20
2017-06-04T11:37:11.081Z,59.14
2017-06-04T11:38:11.663Z,57.57
2017-06-04T11:39:12.247Z,58.15
2017-06-04T11:40:12.831Z,58.31
2017-06-04T11:41:13.417Z,56.87
2017-06-04T11:42:14.015Z,57.83
2017-06-04T11:43:14.598Z,57.92
2017-06-04T11:44:15.181Z,56.99
2017-06-04T11:45:15.767Z,56.48
2017-06-04T11:46:16.350Z,56.20
2017-06-04T11:47:16.934Z,57.73
2017-06-04T11:48:17.522Z,57.15
2017-06-04T11:49:18.105Z,56.99
2017-06-04T11:50:18.694Z,56.63
2017-06-04T11:51:19.289Z,56.09
2017-06-04T11:52:19.890Z,55.12
2017-06-04T11:53:20.488Z,55.02
2017-06-04T11:54:21.075Z,55.29
2017-06-04T11:55:21.659Z,54.90
2017-06-04T11:56:22.245Z,55.02
2017-06-04T11:57:22.830Z,54.71
2017-06-04T11:58:23.414Z,56.18
2017-06-04T11:59:23.999Z,56.66
2017-06-04T12:00:24.587Z,56.44
2017-06-04T12:01:25.172Z,57.69
2017-06-04T12:02:25.759Z,56.09
2017-06-04T12:03:26.342Z,53.96
2017-06-04T12:04:26.928Z,53.99
2017-06-04T12:05:27.513Z,53.67
2017-06-04T12:06:28.110Z,54.98
2017-06-04T12:07:28.697Z,53.44
2017-06-04T12:08:29.282Z,53.75
2017-06-04T12:09:29.880Z,54.17
2017-06-04T12:10:30.465Z,51.82
2017-06-04T12:11:31.052Z,51.87
2017-06-04T12:12:31.639Z,52.73
2017-06-04T12:13:32.224Z,53.63
2017-06-04T12:14:32.811Z,52.59
2017-06-04T12:15:33.395Z,50.96
2017-06-04T12:16:33.979Z,50.76
2017-06-04T12:17:34.568Z,51.12
2017-06-04T12:18:35.151Z,52.45
2017-06-04T12:19:35.735Z,53.09
2017-06-04T12:20:36.322Z,53.84
2017-06-04T12:21:36.907Z,54.10
2017-06-04T12:22:37.492Z,54.06
2017-06-04T12:23:38.078Z,53.67
2017-06-04T12:24:38.662Z,54.74
2017-06-04T12:25:39.248Z,54.16
2017-06-04T12:26:39.846Z,54.64
2017-06-04T12:27:40.445Z,54.57
2017-06-04T12:28:41.044Z,54.02
2017-06-04T12:29:41.629Z,53.95
2017-06-04T12:30:42.215Z,53.03
2017-06-04T12:31:42.803Z,52.09
2017-06-04T12:32:43.389Z,52.67
2017-06-04T12:33:43.974Z,53.13
2017-06-04T12:34:44.563Z,52.25
2017-06-04T12:35:45.143Z,53.92
2017-06-04T12:36:45.730Z,54.11
2017-06-04T12:37:46.315Z,54.14
2017-06-04T12:38:46.901Z,51.00
2017-06-04T12:39:47.486Z,51.77
2017-06-04T12:40:48.071Z,52.25
2017-06-04T12:41:48.655Z,54.06
2017-06-04T12:42:49.240Z,53.09
2017-06-04T12:43:49.839Z,53.77
2017-06-04T12:44:50.436Z,52.91
2017-06-04T12:45:51.021Z,53.58
2017-06-04T12:46:51.604Z,53.87
2017-06-04T12:47:52.188Z,54.74
2017-06-04T12:48:52.778Z,55.00
2017-06-04T12:49:53.356Z,55.19
2017-06-04T12:50:53.942Z,55.87
2017-06-04T12:51:54.525Z,56.25
2017-06-04T12:52:55.109Z,56.37
2017-06-04T12:53:55.695Z,56.27
2017-06-04T12:54:56.278Z,55.02
2017-06-04T12:55:56.862Z,54.71
2017-06-04T12:56:57.447Z,54.71
2017-06-04T12:57:58.030Z,54.71
2017-06-04T12:58:58.613Z,54.49
2017-06-04T12:59:59.198Z,55.07